Time;durP1;ratioP1;P1;durP2;ratioP2;P2;SDS_P1;SDS_P2;PMS_P1;PMS_P2;Temp;Humidity;BMP_temperature;BMP_pressure;BME280_temperature;BME280_humidity;BME280_pressure;Samples;Min_cycle;Max_cycle;Signal;HPM_P1;HPM_P2
2022/11/15 00:00:33;;;;;;;23.63;20.13;;;6.60;99.90;;;;;;5065167;28;20877;-64
2022/11/15 00:02:58;;;;;;;26.27;19.77;;;6.80;99.90;;;;;;5062082;28;20412;-64
2022/11/15 00:05:24;;;;;;;23.80;20.13;;;6.80;99.90;;;;;;5058144;28;20033;-65
2022/11/15 00:07:50;;;;;;;26.27;20.13;;;6.90;99.90;;;;;;5062643;28;20136;-64
2022/11/15 00:10:16;;;;;;;25.48;20.77;;;6.90;99.90;;;;;;5061946;28;20120;-64
2022/11/15 00:12:41;;;;;;;24.00;19.65;;;7.00;99.90;;;;;;5063457;28;20039;-64
2022/11/15 00:15:08;;;;;;;25.50;20.17;;;7.00;99.90;;;;;;5060004;28;20052;-65
2022/11/15 00:17:33;;;;;;;21.95;18.77;;;7.10;99.90;;;;;;5062346;28;20044;-65
2022/11/15 00:19:59;;;;;;;25.65;19.38;;;7.10;99.90;;;;;;5060495;28;20071;-64
2022/11/15 00:22:30;;;;;;;22.92;19.30;;;7.20;99.90;;;;;;5064858;28;20040;-65
2022/11/15 00:24:56;;;;;;;23.98;18.77;;;7.20;99.90;;;;;;5060048;28;20040;-66
2022/11/15 00:27:21;;;;;;;25.20;20.23;;;7.30;99.90;;;;;;5064468;28;20081;-65
2022/11/15 00:29:47;;;;;;;28.17;22.52;;;7.30;99.90;;;;;;5062194;28;20150;-65
2022/11/15 00:32:13;;;;;;;27.92;22.83;;;7.30;99.90;;;;;;5061174;28;20032;-65
2022/11/15 00:34:38;;;;;;;26.45;21.88;;;7.30;99.90;;;;;;5063814;28;20040;-64
2022/11/15 00:37:05;;;;;;;26.83;22.05;;;7.40;99.90;;;;;;5059097;28;20041;-65
2022/11/15 00:39:31;;;;;;;23.65;20.25;;;7.40;99.90;;;;;;5061225;28;20503;-65
2022/11/15 00:41:57;;;;;;;25.45;20.73;;;7.40;99.90;;;;;;5062588;28;20032;-64
2022/11/15 00:44:22;;;;;;;26.27;21.85;;;7.50;99.90;;;;;;5060758;28;20079;-64
2022/11/15 00:46:48;;;;;;;26.65;20.48;;;7.40;99.90;;;;;;5059125;28;20076;-64
2022/11/15 00:49:14;;;;;;;24.55;20.50;;;7.50;99.90;;;;;;5063029;28;20536;-64
2022/11/15 00:51:39;;;;;;;24.67;20.10;;;7.50;99.90;;;;;;5056852;28;20055;-64
2022/11/15 00:54:05;;;;;;;26.95;20.92;;;7.50;99.90;;;;;;5060253;28;20423;-64
2022/11/15 00:56:30;;;;;;;24.60;20.75;;;7.50;99.90;;;;;;5060132;28;20139;-64
2022/11/15 00:58:56;;;;;;;24.08;20.20;;;7.50;99.90;;;;;;5063717;28;20064;-64
2022/11/15 01:01:22;;;;;;;23.27;19.67;;;7.50;99.90;;;;;;5063236;28;20098;-64
2022/11/15 01:03:48;;;;;;;25.30;19.63;;;7.50;99.90;;;;;;5056900;28;20041;-64
2022/11/15 01:06:13;;;;;;;25.85;19.35;;;7.50;99.90;;;;;;5058983;28;20064;-64
2022/11/15 01:08:40;;;;;;;23.63;18.73;;;7.50;99.90;;;;;;5058820;28;20439;-64
2022/11/15 01:11:09;;;;;;;26.55;19.13;;;7.50;99.90;;;;;;5060306;28;20037;-64
2022/11/15 01:13:36;;;;;;;25.33;18.98;;;7.50;99.90;;;;;;5058744;28;20048;-64
2022/11/15 01:16:16;;;;;;;24.15;18.60;;;7.50;99.90;;;;;;5044993;28;20102;-64
2022/11/15 01:18:43;;;;;;;24.60;19.27;;;7.50;99.90;;;;;;5061108;28;20111;-64
2022/11/15 01:21:11;;;;;;;24.33;19.50;;;7.50;99.90;;;;;;5059016;28;20633;-64
2022/11/15 01:23:37;;;;;;;27.20;19.70;;;7.50;99.90;;;;;;5059377;28;20499;-64
2022/11/15 01:26:04;;;;;;;27.92;21.17;;;7.50;99.90;;;;;;5062666;28;20036;-64
2022/11/15 01:28:35;;;;;;;26.42;19.95;;;7.50;99.90;;;;;;5056710;28;20036;-64
2022/11/15 01:31:03;;;;;;;27.95;21.38;;;7.60;99.90;;;;;;5057207;28;20384;-64
2022/11/15 01:33:29;;;;;;;27.50;21.42;;;7.50;99.90;;;;;;5059543;28;20081;-64
2022/11/15 01:35:55;;;;;;;29.35;21.10;;;7.50;99.90;;;;;;5056851;28;20039;-64
2022/11/15 01:38:22;;;;;;;28.95;21.30;;;7.50;99.90;;;;;;5057570;28;20384;-64
2022/11/15 01:40:48;;;;;;;29.13;21.08;;;7.50;99.90;;;;;;5062031;28;20120;-65
2022/11/15 01:43:26;;;;;;;31.17;22.67;;;7.50;99.90;;;;;;5059315;28;20064;-64
2022/11/15 01:46:21;;;;;;;29.80;21.50;;;7.50;99.90;;;;;;5049026;28;20182;-64
2022/11/15 01:48:51;;;;;;;28.83;21.00;;;7.60;99.90;;;;;;5029451;28;20041;-64
2022/11/15 01:51:19;;;;;;;25.85;20.10;;;7.50;99.90;;;;;;5062083;28;20543;-64
2022/11/15 01:53:49;;;;;;;27.42;20.40;;;7.60;99.90;;;;;;5057793;28;20051;-64
2022/11/15 01:56:19;;;;;;;28.05;21.30;;;7.60;99.90;;;;;;5060660;28;20044;-64
2022/11/15 01:58:46;;;;;;;28.45;20.77;;;7.60;99.90;;;;;;5054805;28;20076;-64
2022/11/15 02:01:13;;;;;;;29.35;22.00;;;7.60;99.90;;;;;;5062421;28;20041;-64
2022/11/15 02:03:54;;;;;;;27.60;19.83;;;7.60;99.90;;;;;;5056790;28;20151;-64
2022/11/15 02:06:21;;;;;;;26.60;20.75;;;7.60;99.90;;;;;;5060921;28;20268;-64
2022/11/15 02:08:47;;;;;;;26.75;20.73;;;7.70;99.90;;;;;;5056972;28;20506;-64
2022/11/15 02:11:13;;;;;;;30.58;21.45;;;7.60;99.90;;;;;;5065980;28;20492;-64
2022/11/15 02:13:39;;;;;;;27.30;19.98;;;7.60;99.90;;;;;;5056711;28;20094;-64
2022/11/15 02:16:20;;;;;;;27.33;20.88;;;7.70;99.90;;;;;;5061260;28;20114;-65
2022/11/15 02:18:54;;;;;;;28.77;20.20;;;7.70;99.90;;;;;;5053776;28;20047;-64
2022/11/15 02:21:36;;;;;;;26.75;19.20;;;7.70;99.90;;;;;;5061646;28;20384;-64
2022/11/15 02:24:43;;;;;;;27.45;19.52;;;7.70;99.90;;;;;;5063851;28;20071;-64
2022/11/15 02:27:34;;;;;;;26.52;19.33;;;7.70;99.90;;;;;;5062661;28;20467;-64
2022/11/15 02:30:20;;;;;;;27.38;20.13;;;7.70;99.90;;;;;;5040058;28;20037;-64
2022/11/15 02:32:58;;;;;;;28.90;19.58;;;7.80;99.90;;;;;;5057227;28;20039;-64
2022/11/15 02:35:27;;;;;;;31.02;19.98;;;7.80;99.90;;;;;;5055598;28;20488;-64
2022/11/15 02:37:57;;;;;;;30.17;20.42;;;7.70;99.90;;;;;;5057052;28;20711;-64
2022/11/15 02:40:34;;;;;;;28.67;20.60;;;7.80;99.90;;;;;;5057234;28;20049;-65
2022/11/15 02:45:58;;;;;;;30.10;20.83;;;7.80;99.90;;;;;;5057792;28;20120;-65
2022/11/15 02:48:25;;;;;;;32.55;20.33;;;7.80;99.90;;;;;;5057743;28;20044;-65
2022/11/15 02:50:52;;;;;;;31.65;21.15;;;7.80;99.90;;;;;;5058845;28;20045;-64
2022/11/15 02:53:17;;;;;;;31.23;20.38;;;7.80;99.90;;;;;;5059818;28;20075;-64
2022/11/15 02:55:51;;;;;;;31.90;22.52;;;7.80;99.90;;;;;;5056446;28;20287;-64
2022/11/15 02:58:54;;;;;;;35.05;22.13;;;7.90;99.90;;;;;;5060297;28;20047;-63
2022/11/15 03:01:46;;;;;;;35.78;23.17;;;7.90;99.90;;;;;;5060148;28;20171;-64
2022/11/15 03:04:23;;;;;;;39.80;22.45;;;7.90;99.90;;;;;;5053779;28;20125;-64
2022/11/15 03:07:07;;;;;;;34.58;21.63;;;7.90;99.90;;;;;;5064177;28;20611;-64
2022/11/15 03:10:02;;;;;;;43.58;22.75;;;8.00;99.90;;;;;;5060959;28;20125;-64
2022/11/15 03:12:51;;;;;;;37.95;22.13;;;8.00;99.90;;;;;;5065946;28;20357;-64
2022/11/15 03:15:17;;;;;;;39.80;23.98;;;8.00;99.90;;;;;;5061905;28;20033;-64
2022/11/15 03:17:58;;;;;;;39.88;23.13;;;7.90;99.90;;;;;;5059520;28;20043;-64
2022/11/15 03:20:26;;;;;;;43.72;24.15;;;8.00;99.90;;;;;;5060098;28;20171;-64
2022/11/15 03:22:55;;;;;;;40.25;22.95;;;8.00;99.90;;;;;;5065284;28;20029;-64
2022/11/15 03:25:24;;;;;;;42.97;24.05;;;8.00;99.90;;;;;;5066919;28;20055;-64
2022/11/15 03:27:55;;;;;;;43.83;24.98;;;8.10;99.90;;;;;;5061268;28;20029;-65
2022/11/15 03:30:21;;;;;;;44.83;24.95;;;8.10;99.90;;;;;;5059302;28;20037;-64
2022/11/15 03:32:54;;;;;;;47.10;24.92;;;8.10;99.90;;;;;;5060973;28;20047;-65
2022/11/15 03:35:27;;;;;;;44.80;25.83;;;8.10;99.90;;;;;;5057641;28;20128;-64
2022/11/15 03:38:15;;;;;;;47.50;26.15;;;8.20;99.90;;;;;;5062354;28;20525;-65
2022/11/15 03:40:44;;;;;;;45.25;25.45;;;8.20;99.90;;;;;;5058176;28;20032;-65
2022/11/15 03:43:17;;;;;;;49.03;25.70;;;8.20;99.90;;;;;;5056307;28;20044;-65
2022/11/15 03:45:59;;;;;;;44.53;25.33;;;8.20;99.90;;;;;;5058923;28;20048;-65
2022/11/15 03:48:30;;;;;;;48.22;26.38;;;8.30;99.90;;;;;;5060916;28;20304;-65
2022/11/15 03:50:56;;;;;;;52.30;28.63;;;8.30;99.90;;;;;;5060498;28;20163;-65
2022/11/15 03:53:22;;;;;;;51.05;27.17;;;8.30;99.90;;;;;;5066561;28;20048;-65
2022/11/15 03:55:47;;;;;;;54.08;27.23;;;8.30;99.90;;;;;;5060750;28;20051;-65
2022/11/15 03:58:13;;;;;;;54.55;28.15;;;8.30;99.90;;;;;;5060787;28;20071;-65
2022/11/15 04:00:39;;;;;;;52.55;29.42;;;8.30;99.90;;;;;;5062128;28;20492;-65
2022/11/15 04:03:04;;;;;;;61.42;30.13;;;8.40;99.90;;;;;;5056842;28;20051;-65
2022/11/15 04:05:30;;;;;;;58.10;30.90;;;8.40;99.90;;;;;;5062391;28;20036;-65
2022/11/15 04:07:56;;;;;;;59.92;29.67;;;8.40;99.90;;;;;;5058778;28;20032;-65
2022/11/15 04:10:21;;;;;;;62.40;30.10;;;8.40;99.90;;;;;;5048330;28;20062;-65
2022/11/15 04:12:47;;;;;;;62.38;28.63;;;8.40;99.90;;;;;;5056386;28;20040;-65
2022/11/15 04:15:19;;;;;;;65.63;32.28;;;8.40;99.90;;;;;;5063407;28;20105;-65
2022/11/15 04:17:50;;;;;;;68.72;31.42;;;8.50;99.90;;;;;;5061341;28;20041;-66
2022/11/15 04:25:58;;;;;;;62.38;32.58;;;8.50;99.90;;;;;;5066844;28;20503;-65
2022/11/15 04:28:23;;;;;;;77.30;33.40;;;8.60;99.90;;;;;;5041203;28;20052;-65
2022/11/15 04:30:49;;;;;;;71.05;33.75;;;8.60;99.90;;;;;;5061708;28;20064;-65
2022/11/15 04:33:15;;;;;;;79.57;34.67;;;8.60;99.90;;;;;;5059826;28;20411;-66
2022/11/15 04:35:42;;;;;;;81.32;33.88;;;8.60;99.90;;;;;;5064188;28;20122;-65
2022/11/15 04:38:09;;;;;;;74.82;33.13;;;8.60;99.90;;;;;;5056958;28;20036;-65
2022/11/15 04:40:36;;;;;;;88.22;36.45;;;8.70;99.90;;;;;;5054536;28;20129;-65
2022/11/15 04:43:02;;;;;;;79.50;34.97;;;8.70;99.90;;;;;;5058782;28;20076;-66
2022/11/15 04:45:28;;;;;;;83.70;35.15;;;8.70;99.90;;;;;;5062923;28;20380;-65
2022/11/15 04:47:53;;;;;;;83.13;37.10;;;8.70;99.90;;;;;;5059415;28;20041;-65
2022/11/15 04:50:19;;;;;;;73.53;35.40;;;8.70;99.90;;;;;;5057586;28;20037;-65
2022/11/15 04:52:52;;;;;;;75.18;36.90;;;8.80;99.90;;;;;;5061493;28;20083;-65
2022/11/15 04:55:18;;;;;;;72.45;34.28;;;8.80;99.90;;;;;;5061073;28;20442;-65
2022/11/15 04:57:43;;;;;;;78.32;36.78;;;8.80;99.90;;;;;;5065675;28;20106;-65
2022/11/15 05:00:12;;;;;;;90.38;37.00;;;8.90;99.90;;;;;;5039707;28;20053;-65
2022/11/15 05:05:24;;;;;;;73.53;35.17;;;8.90;99.90;;;;;;5061838;28;20118;-65
2022/11/15 05:07:50;;;;;;;80.82;35.55;;;9.00;99.90;;;;;;5060157;28;20036;-65
2022/11/15 05:10:15;;;;;;;66.47;35.33;;;9.00;99.90;;;;;;5054121;28;20033;-66
2022/11/15 05:12:41;;;;;;;75.13;35.92;;;9.10;99.90;;;;;;5057828;28;20145;-65
2022/11/15 05:15:08;;;;;;;67.35;34.45;;;9.10;99.90;;;;;;5057612;28;20044;-65
2022/11/15 05:17:33;;;;;;;75.55;36.75;;;9.20;99.90;;;;;;5055978;28;20032;-65
2022/11/15 05:19:59;;;;;;;70.07;35.97;;;9.20;99.90;;;;;;5056424;28;20039;-65
2022/11/15 05:22:25;;;;;;;79.68;37.42;;;9.20;99.90;;;;;;5057005;28;20549;-65
2022/11/15 05:24:51;;;;;;;60.03;35.53;;;9.30;99.90;;;;;;5055597;28;20064;-65
2022/11/15 05:27:16;;;;;;;71.53;36.92;;;9.30;99.90;;;;;;5055647;28;20024;-65
2022/11/15 05:29:42;;;;;;;70.78;37.20;;;9.40;99.90;;;;;;5060275;28;20033;-65
2022/11/15 05:32:10;;;;;;;72.88;36.33;;;9.40;99.90;;;;;;5063723;28;20050;-65
2022/11/15 05:34:36;;;;;;;55.75;33.13;;;9.40;99.90;;;;;;5059893;28;20040;-65
2022/11/15 05:37:03;;;;;;;57.78;34.28;;;9.40;99.90;;;;;;5056405;28;20488;-65
2022/11/15 05:39:28;;;;;;;60.25;33.67;;;9.50;99.90;;;;;;5059397;28;20103;-65
2022/11/15 05:42:05;;;;;;;56.83;33.45;;;9.50;99.90;;;;;;5057746;28;20041;-65
2022/11/15 05:44:32;;;;;;;52.85;32.25;;;9.50;99.90;;;;;;5054181;28;20041;-65
2022/11/15 05:46:58;;;;;;;56.83;33.13;;;9.50;99.90;;;;;;5061489;28;20120;-65
2022/11/15 05:49:28;;;;;;;54.40;32.80;;;9.50;99.90;;;;;;5056454;28;20041;-66
2022/11/15 05:51:54;;;;;;;50.58;32.10;;;9.60;99.90;;;;;;5058023;28;20423;-65
2022/11/15 05:54:22;;;;;;;57.83;32.75;;;9.60;99.90;;;;;;5060901;28;20090;-65
2022/11/15 05:56:48;;;;;;;57.40;33.00;;;9.60;99.90;;;;;;5056875;28;20451;-65
2022/11/15 05:59:14;;;;;;;56.70;32.13;;;9.60;99.90;;;;;;5056346;28;20033;-65
2022/11/15 06:01:40;;;;;;;51.58;30.73;;;9.70;99.90;;;;;;5049121;28;21934;-65
2022/11/15 06:04:06;;;;;;;51.30;31.38;;;9.70;99.90;;;;;;5059570;28;20106;-65
2022/11/15 06:06:32;;;;;;;55.30;31.75;;;9.70;99.90;;;;;;5062857;28;20025;-65
2022/11/15 06:08:58;;;;;;;54.55;32.88;;;9.80;99.90;;;;;;5058191;28;20043;-65
2022/11/15 06:11:23;;;;;;;51.08;30.77;;;9.80;99.90;;;;;;5061872;28;20052;-65
2022/11/15 06:13:49;;;;;;;52.50;31.05;;;9.80;99.90;;;;;;5062056;28;20040;-65
2022/11/15 06:16:15;;;;;;;58.15;31.77;;;9.80;99.90;;;;;;5063908;28;20465;-65
2022/11/15 06:18:41;;;;;;;55.67;30.95;;;9.90;99.90;;;;;;5059846;28;20549;-65
2022/11/15 06:21:06;;;;;;;57.80;31.95;;;9.90;99.90;;;;;;5060038;28;20084;-66
2022/11/15 06:23:33;;;;;;;55.67;31.98;;;10.00;99.90;;;;;;5060357;28;20487;-65
2022/11/15 06:26:00;;;;;;;56.15;31.38;;;10.00;99.90;;;;;;5060227;28;20178;-65
2022/11/15 06:28:30;;;;;;;53.75;31.17;;;10.00;99.90;;;;;;5062573;28;20037;-65
2022/11/15 06:30:56;;;;;;;51.25;31.23;;;10.10;99.90;;;;;;5039020;28;20119;-66
2022/11/15 06:33:22;;;;;;;49.55;29.20;;;10.10;99.90;;;;;;5061155;28;20131;-66
2022/11/15 06:35:47;;;;;;;49.15;29.05;;;10.10;99.90;;;;;;5058947;28;20047;-66
2022/11/15 06:38:13;;;;;;;51.30;30.48;;;10.10;99.90;;;;;;5059745;28;20032;-66
2022/11/15 06:40:39;;;;;;;53.08;30.13;;;10.20;99.90;;;;;;5057095;28;20086;-65
2022/11/15 06:43:06;;;;;;;49.58;30.00;;;10.20;99.90;;;;;;5059780;28;20373;-66
2022/11/15 06:45:32;;;;;;;50.65;30.48;;;10.20;99.90;;;;;;5064454;28;20037;-65
2022/11/15 06:47:58;;;;;;;48.00;29.42;;;10.20;99.90;;;;;;5060869;28;20035;-66
2022/11/15 06:50:24;;;;;;;52.47;30.00;;;10.20;99.90;;;;;;5056811;28;20475;-65
2022/11/15 06:52:50;;;;;;;48.95;27.88;;;10.30;99.90;;;;;;5059849;28;20052;-66
2022/11/15 06:55:16;;;;;;;44.50;28.42;;;10.30;99.90;;;;;;5061216;28;20517;-66
2022/11/15 06:57:52;;;;;;;43.83;28.42;;;10.30;99.90;;;;;;5058791;28;20097;-66
2022/11/15 07:00:19;;;;;;;49.20;28.88;;;10.30;99.90;;;;;;5054555;28;20036;-66
2022/11/15 07:02:45;;;;;;;43.95;27.70;;;10.30;99.90;;;;;;5054680;28;20044;-66
2022/11/15 07:05:12;;;;;;;39.88;27.80;;;10.40;99.90;;;;;;5055707;28;20059;-66
2022/11/15 07:07:38;;;;;;;39.90;27.25;;;10.40;99.90;;;;;;5055777;28;20032;-66
2022/11/15 07:10:04;;;;;;;43.88;27.23;;;10.40;99.90;;;;;;5058665;28;20048;-65
2022/11/15 07:12:30;;;;;;;37.85;26.63;;;10.40;99.90;;;;;;5058435;28;20396;-66
2022/11/15 07:14:56;;;;;;;39.17;25.85;;;10.50;99.90;;;;;;5060908;28;20040;-66
2022/11/15 07:17:22;;;;;;;40.65;26.15;;;10.50;99.90;;;;;;5064502;28;20438;-66
2022/11/15 07:19:47;;;;;;;35.03;25.52;;;10.50;99.90;;;;;;5062099;28;20032;-66
2022/11/15 07:22:13;;;;;;;42.08;28.65;;;10.50;99.90;;;;;;5064037;28;20093;-66
2022/11/15 07:24:39;;;;;;;36.53;24.92;;;10.50;99.90;;;;;;5061540;28;20025;-66
2022/11/15 07:27:04;;;;;;;37.67;25.75;;;10.50;99.90;;;;;;5062255;28;20033;-66
2022/11/15 07:29:30;;;;;;;38.80;26.80;;;10.60;99.90;;;;;;5060454;28;20041;-66
2022/11/15 07:31:56;;;;;;;35.60;24.67;;;10.60;99.90;;;;;;5066507;28;20045;-66
2022/11/15 07:34:22;;;;;;;36.75;24.42;;;10.60;99.90;;;;;;5058126;28;20037;-66
2022/11/15 07:36:47;;;;;;;31.40;24.38;;;10.60;99.90;;;;;;5063410;28;20032;-66
2022/11/15 07:39:13;;;;;;;33.55;24.35;;;10.60;99.90;;;;;;5064293;28;20443;-66
2022/11/15 07:41:39;;;;;;;31.83;24.52;;;10.60;99.90;;;;;;5063613;28;20391;-66
2022/11/15 07:44:05;;;;;;;32.35;24.42;;;10.70;99.90;;;;;;5064890;28;20063;-66
2022/11/15 07:46:31;;;;;;;32.78;25.42;;;10.70;99.90;;;;;;5063322;28;20101;-66
2022/11/15 07:48:57;;;;;;;39.60;25.23;;;10.70;99.90;;;;;;5056991;28;20040;-66
2022/11/15 07:51:23;;;;;;;33.15;24.85;;;10.80;99.90;;;;;;5062044;28;20049;-66
2022/11/15 07:53:49;;;;;;;33.10;24.08;;;10.80;99.90;;;;;;5064164;28;20033;-67
2022/11/15 07:56:14;;;;;;;28.33;23.00;;;10.80;99.90;;;;;;5063753;28;20037;-66
2022/11/15 07:58:40;;;;;;;32.95;23.60;;;10.80;99.90;;;;;;5064655;28;20068;-66
2022/11/15 08:01:08;;;;;;;29.35;21.65;;;10.80;99.90;;;;;;5058765;28;20055;-67
2022/11/15 08:03:34;;;;;;;29.70;22.73;;;10.90;99.90;;;;;;5063180;28;20036;-67
2022/11/15 08:05:59;;;;;;;28.35;22.10;;;10.90;99.90;;;;;;5062400;28;20119;-67
2022/11/15 08:08:25;;;;;;;32.70;23.35;;;10.90;99.90;;;;;;5062943;28;20048;-67
2022/11/15 08:10:51;;;;;;;28.65;22.30;;;10.90;99.90;;;;;;5060335;28;20040;-67
2022/11/15 08:13:17;;;;;;;28.80;20.70;;;11.00;99.90;;;;;;5064593;28;20492;-67
2022/11/15 08:15:43;;;;;;;29.65;21.60;;;11.00;99.90;;;;;;5061521;28;20404;-67
2022/11/15 08:18:14;;;;;;;28.58;22.10;;;11.00;99.90;;;;;;5061823;28;20049;-67
2022/11/15 08:20:41;;;;;;;28.52;21.25;;;11.00;99.90;;;;;;5060040;28;20041;-67
2022/11/15 08:23:07;;;;;;;27.60;21.92;;;11.10;99.90;;;;;;5067923;28;20037;-67
2022/11/15 08:25:34;;;;;;;23.63;20.30;;;11.10;99.90;;;;;;5062521;28;20108;-67
2022/11/15 08:28:02;;;;;;;25.65;21.17;;;11.10;99.90;;;;;;5065512;28;20035;-67
2022/11/15 08:30:28;;;;;;;31.63;20.50;;;11.10;99.90;;;;;;5048623;28;20076;-67
2022/11/15 08:32:56;;;;;;;28.02;21.30;;;11.20;99.90;;;;;;5063048;28;20428;-67
2022/11/15 08:35:21;;;;;;;30.35;23.27;;;11.20;99.90;;;;;;5058097;28;20033;-67
2022/11/15 08:37:47;;;;;;;23.85;20.33;;;11.20;99.90;;;;;;5066583;28;20591;-66
2022/11/15 08:40:13;;;;;;;25.02;21.95;;;11.30;99.90;;;;;;5058607;28;20044;-67
2022/11/15 08:42:39;;;;;;;25.33;20.80;;;11.30;99.90;;;;;;5063947;28;20457;-67
2022/11/15 08:45:06;;;;;;;28.88;21.63;;;11.30;99.90;;;;;;5059705;28;20522;-67
2022/11/15 08:47:32;;;;;;;26.65;20.73;;;11.30;99.90;;;;;;5059161;28;20033;-67
2022/11/15 08:49:58;;;;;;;24.90;20.42;;;11.30;99.90;;;;;;5062403;28;20041;-67
2022/11/15 08:52:24;;;;;;;29.48;20.65;;;11.40;99.90;;;;;;5055818;28;20539;-67
2022/11/15 08:54:50;;;;;;;27.42;21.73;;;11.40;99.90;;;;;;5062419;28;20101;-67
2022/11/15 08:57:15;;;;;;;27.33;19.98;;;11.40;99.90;;;;;;5057721;28;20033;-66
2022/11/15 08:59:41;;;;;;;27.55;21.20;;;11.40;99.90;;;;;;5052184;28;20044;-67
2022/11/15 09:02:15;;;;;;;25.92;20.98;;;11.40;99.90;;;;;;5060197;28;20048;-67
2022/11/15 09:04:42;;;;;;;25.75;20.45;;;11.50;99.90;;;;;;5059843;28;20041;-67
2022/11/15 09:07:11;;;;;;;26.40;20.88;;;11.50;99.90;;;;;;5062737;28;20098;-66
2022/11/15 09:09:38;;;;;;;27.38;20.63;;;11.50;99.90;;;;;;5061968;28;20028;-67
2022/11/15 09:12:05;;;;;;;26.67;20.60;;;11.50;99.90;;;;;;5065368;28;20170;-67
2022/11/15 09:14:31;;;;;;;24.77;20.30;;;11.60;99.90;;;;;;5064042;28;20089;-67
2022/11/15 09:16:57;;;;;;;26.83;20.30;;;11.60;99.90;;;;;;5068511;28;20040;-67
2022/11/15 09:19:22;;;;;;;27.05;20.58;;;11.60;99.90;;;;;;5061569;28;20040;-67
2022/11/15 09:21:48;;;;;;;27.25;19.67;;;11.60;99.90;;;;;;5059224;28;20408;-67
2022/11/15 09:24:14;;;;;;;27.98;20.17;;;11.70;99.90;;;;;;5062927;28;20109;-67
2022/11/15 09:26:40;;;;;;;23.17;19.90;;;11.70;99.90;;;;;;5060172;28;20040;-67
2022/11/15 09:29:06;;;;;;;24.40;20.27;;;11.70;99.90;;;;;;5059394;28;20097;-67
2022/11/15 09:31:32;;;;;;;23.75;19.48;;;11.70;99.90;;;;;;5046132;28;20040;-67
2022/11/15 09:33:58;;;;;;;21.85;19.35;;;11.70;99.90;;;;;;5057724;28;20423;-67
2022/11/15 09:36:24;;;;;;;23.02;19.30;;;11.70;99.90;;;;;;5057182;28;20091;-67
2022/11/15 09:38:49;;;;;;;22.70;18.58;;;11.80;99.90;;;;;;5058268;28;20396;-67
2022/11/15 09:41:15;;;;;;;23.48;19.48;;;11.80;99.90;;;;;;5045704;28;20032;-67
2022/11/15 09:44:25;;;;;;;23.80;20.45;;;11.90;99.90;;;;;;5053691;28;20114;-67
2022/11/15 09:47:09;;;;;;;25.02;18.45;;;11.90;99.90;;;;;;5056497;28;20041;-67
2022/11/15 09:49:35;;;;;;;26.60;19.75;;;11.90;99.90;;;;;;5059543;28;20409;-67
2022/11/15 09:52:01;;;;;;;23.80;17.88;;;12.00;99.90;;;;;;5059831;28;20155;-67
2022/11/15 09:54:40;;;;;;;22.95;18.13;;;12.00;99.90;;;;;;5056898;28;20068;-67
2022/11/15 09:57:13;;;;;;;22.50;17.67;;;12.00;99.90;;;;;;5063458;28;20040;-67
2022/11/15 09:59:59;;;;;;;21.67;17.27;;;12.10;99.90;;;;;;5058337;28;20052;-67
2022/11/15 10:02:46;;;;;;;21.88;17.27;;;12.00;99.90;;;;;;5028743;28;20059;-67
2022/11/15 10:05:18;;;;;;;22.40;17.20;;;12.10;99.90;;;;;;5061440;28;20040;-67
2022/11/15 10:07:52;;;;;;;21.10;16.35;;;12.10;99.90;;;;;;5060053;28;20166;-67
2022/11/15 10:10:21;;;;;;;18.27;15.82;;;12.10;99.90;;;;;;5042318;28;20064;-67
2022/11/15 10:12:49;;;;;;;19.77;16.23;;;12.10;99.90;;;;;;5060015;28;20036;-68
2022/11/15 10:15:22;;;;;;;18.77;15.77;;;12.10;99.90;;;;;;5055820;28;20097;-67
2022/11/15 10:18:06;;;;;;;17.02;15.23;;;12.20;99.90;;;;;;5060324;28;20108;-67
2022/11/15 10:20:41;;;;;;;22.95;15.32;;;12.20;99.90;;;;;;5058457;28;20072;-67
2022/11/15 10:23:15;;;;;;;19.65;14.43;;;12.20;99.90;;;;;;5058416;28;20033;-67
2022/11/15 10:25:41;;;;;;;17.67;14.35;;;12.30;99.90;;;;;;5061600;28;20041;-67
2022/11/15 10:28:17;;;;;;;15.75;13.27;;;12.30;99.90;;;;;;5061620;28;20032;-67
2022/11/15 10:30:49;;;;;;;16.50;14.35;;;12.40;99.90;;;;;;5058808;28;20095;-67
2022/11/15 10:33:33;;;;;;;14.52;13.02;;;12.50;99.90;;;;;;5063462;28;20036;-67
2022/11/15 10:36:08;;;;;;;14.32;12.48;;;12.50;99.90;;;;;;5055314;28;20041;-67
2022/11/15 10:38:51;;;;;;;13.02;11.48;;;12.60;99.90;;;;;;5062339;28;20159;-67
2022/11/15 10:41:22;;;;;;;12.95;11.48;;;12.60;99.90;;;;;;5056602;28;20049;-66
2022/11/15 10:44:06;;;;;;;13.55;12.15;;;12.60;99.90;;;;;;5059422;28;20037;-67
2022/11/15 10:46:34;;;;;;;12.07;10.75;;;12.60;99.90;;;;;;5057320;28;20064;-67
2022/11/15 10:49:17;;;;;;;12.13;10.38;;;12.60;99.90;;;;;;5061116;28;20055;-67
2022/11/15 10:51:54;;;;;;;11.13;8.48;;;12.80;99.90;;;;;;5041623;28;20419;-67
2022/11/15 10:54:37;;;;;;;11.65;9.02;;;12.90;99.90;;;;;;5062963;28;20040;-67
2022/11/15 10:57:19;;;;;;;8.15;7.38;;;13.20;99.90;;;;;;5044042;28;20508;-67
2022/11/15 10:59:54;;;;;;;11.70;8.25;;;13.40;99.90;;;;;;5061694;28;20129;-67
2022/11/15 11:03:00;;;;;;;7.85;6.07;;;13.50;99.90;;;;;;5064246;28;20120;-67
2022/11/15 11:05:36;;;;;;;7.20;5.13;;;13.60;99.90;;;;;;5049544;28;20052;-67
2022/11/15 11:08:21;;;;;;;5.95;3.60;;;13.60;99.90;;;;;;5062454;28;20120;-68
2022/11/15 11:11:01;;;;;;;7.28;3.65;;;13.60;99.90;;;;;;5057453;28;20108;-67
2022/11/15 11:13:28;;;;;;;6.68;2.55;;;13.70;99.90;;;;;;5062673;28;20157;-67
2022/11/15 11:16:17;;;;;;;6.00;3.10;;;13.60;99.90;;;;;;5058293;28;20037;-67
2022/11/15 11:19:14;;;;;;;7.10;3.13;;;13.50;99.90;;;;;;5062873;28;20037;-67
2022/11/15 11:21:51;;;;;;;6.75;2.88;;;13.50;99.90;;;;;;5059208;28;20116;-67
2022/11/15 11:24:38;;;;;;;5.32;2.22;;;13.40;99.90;;;;;;5063302;28;20032;-67
2022/11/15 11:27:26;;;;;;;6.03;2.67;;;13.40;99.90;;;;;;5059396;28;20373;-67
2022/11/15 11:30:07;;;;;;;4.47;2.40;;;13.40;99.90;;;;;;5064660;28;20102;-67
2022/11/15 11:32:44;;;;;;;3.65;2.25;;;13.40;99.90;;;;;;5067085;28;20067;-66
2022/11/15 11:35:20;;;;;;;7.05;2.40;;;13.30;99.90;;;;;;5063955;28;20032;-67
2022/11/15 11:37:51;;;;;;;5.90;2.38;;;13.30;99.90;;;;;;5061073;28;20041;-67
2022/11/15 11:40:29;;;;;;;5.38;2.38;;;13.20;99.90;;;;;;5063344;28;20040;-67
2022/11/15 11:43:03;;;;;;;3.80;1.90;;;13.10;99.90;;;;;;5060814;28;20133;-67
2022/11/15 11:45:42;;;;;;;;;;;13.00;99.90;;;;;;5062369;28;20471;-67
2022/11/15 11:48:34;;;;;;;7.97;2.67;;;12.90;99.90;;;;;;5060947;28;20314;-67
2022/11/15 11:51:08;;;;;;;6.00;2.75;;;12.80;99.90;;;;;;5060769;28;20526;-67
2022/11/15 11:53:46;;;;;;;3.92;2.03;;;12.80;99.90;;;;;;5065746;28;20049;-67
2022/11/15 11:56:31;;;;;;;6.18;3.00;;;12.80;99.90;;;;;;5047637;28;20136;-67
2022/11/15 11:59:05;;;;;;;8.55;3.30;;;12.80;99.90;;;;;;5062529;28;20055;-66
2022/11/15 12:01:35;;;;;;;;;;;12.80;99.90;;;;;;5043686;28;20040;-67
2022/11/15 12:04:20;;;;;;;7.05;3.72;;;12.70;99.90;;;;;;5059338;28;19931;-67
2022/11/15 12:06:55;;;;;;;5.93;3.40;;;12.80;99.90;;;;;;5064098;28;20032;-67
2022/11/15 12:09:42;;;;;;;4.97;3.97;;;12.80;99.90;;;;;;5062434;28;20107;-66
2022/11/15 12:12:24;;;;;;;7.13;3.35;;;12.80;99.90;;;;;;5064234;28;20045;-66
2022/11/15 12:14:55;;;;;;;4.95;3.38;;;12.90;99.90;;;;;;5062596;28;20108;-66
2022/11/15 12:17:24;;;;;;;7.32;3.63;;;13.00;99.90;;;;;;5058494;28;20062;-66
2022/11/15 12:20:11;;;;;;;11.50;4.30;;;13.00;99.90;;;;;;5060363;28;20048;-66
2022/11/15 12:22:43;;;;;;;7.70;3.20;;;13.10;99.90;;;;;;5053593;28;20052;-67
2022/11/15 12:25:35;;;;;;;5.90;3.13;;;13.20;99.90;;;;;;5060198;28;20446;-66
2022/11/15 12:28:00;;;;;;;4.82;3.10;;;13.30;99.90;;;;;;5054417;28;20045;-67
2022/11/15 12:30:51;;;;;;;6.75;3.70;;;13.30;99.90;;;;;;5062828;28;20037;-66
2022/11/15 12:33:45;;;;;;;4.15;2.40;;;13.40;99.90;;;;;;5057796;28;20091;-66
2022/11/15 12:36:21;;;;;;;6.22;2.75;;;13.50;99.90;;;;;;5056481;28;20127;-66
2022/11/15 12:38:55;;;;;;;4.55;2.80;;;13.50;99.90;;;;;;5059084;28;20068;-66
2022/11/15 12:41:25;;;;;;;4.60;2.08;;;13.50;99.90;;;;;;5060716;28;20254;-66
2022/11/15 12:43:51;;;;;;;7.07;2.78;;;13.50;99.90;;;;;;5060456;28;20056;-66
2022/11/15 12:46:29;;;;;;;5.50;2.88;;;13.50;99.90;;;;;;5065277;28;20483;-66
2022/11/15 12:48:59;;;;;;;7.45;3.13;;;13.50;99.90;;;;;;5063535;28;20439;-66
2022/11/15 12:51:46;;;;;;;9.98;4.38;;;13.60;99.90;;;;;;5062104;28;20057;-67
2022/11/15 12:54:21;;;;;;;8.73;3.92;;;13.70;99.90;;;;;;5055197;28;20044;-66
2022/11/15 12:57:07;;;;;;;4.55;2.38;;;13.70;99.90;;;;;;5065321;28;20029;-66
2022/11/15 13:00:01;;;;;;;4.20;1.92;;;13.70;99.90;;;;;;5060409;28;20132;-66
2022/11/15 13:02:35;;;;;;;4.38;2.05;;;13.70;99.90;;;;;;5065213;28;20040;-67
2022/11/15 13:05:17;;;;;;;3.37;1.50;;;13.70;99.90;;;;;;5059231;28;20476;-67